createdAt,value
2022-09-04T00:02:21.420Z,18.72
2022-09-04T00:05:43.516Z,18.66
2022-09-04T00:08:51.004Z,18.67
2022-09-04T00:12:04.368Z,18.67
2022-09-04T00:15:17.339Z,18.65
2022-09-04T00:18:27.110Z,18.63
2022-09-04T00:21:38.153Z,18.63
2022-09-04T00:24:44.622Z,18.69
2022-09-04T00:27:50.320Z,18.64
2022-09-04T00:31:02.098Z,18.64
2022-09-04T00:34:17.527Z,18.70
2022-09-04T00:37:26.089Z,18.69
2022-09-04T00:40:56.717Z,18.65
2022-09-04T00:44:18.377Z,18.64
2022-09-04T00:47:57.569Z,18.56
2022-09-04T00:51:30.848Z,18.53
2022-09-04T00:54:54.639Z,18.47
2022-09-04T00:58:26.326Z,18.40
2022-09-04T01:01:28.554Z,18.34
2022-09-04T01:05:27.701Z,18.29
2022-09-04T01:08:50.125Z,18.29
2022-09-04T01:12:10.525Z,18.28
2022-09-04T01:15:27.954Z,18.27
2022-09-04T01:18:56.293Z,18.24
2022-09-04T01:22:36.431Z,18.17
2022-09-04T01:26:11.906Z,18.17
2022-09-04T01:29:35.637Z,18.14
2022-09-04T01:32:55.804Z,18.08
2022-09-04T01:36:19.509Z,18.06
2022-09-04T01:39:24.654Z,18.03
2022-09-04T01:42:45.978Z,18.07
2022-09-04T01:46:05.636Z,18.10
2022-09-04T01:49:07.030Z,18.12
2022-09-04T01:52:29.981Z,18.09
2022-09-04T01:55:43.286Z,18.07
2022-09-04T01:58:55.869Z,18.03
2022-09-04T02:02:25.532Z,18.04
2022-09-04T02:05:36.802Z,18.00
2022-09-04T02:08:47.250Z,17.94
2022-09-04T02:12:03.140Z,17.88
2022-09-04T02:15:29.470Z,17.81
2022-09-04T02:18:56.981Z,17.78
2022-09-04T02:22:12.889Z,17.80
2022-09-04T02:25:24.098Z,17.79
2022-09-04T02:28:44.442Z,17.77
2022-09-04T02:32:03.157Z,17.71
2022-09-04T02:35:09.762Z,17.62
2022-09-04T02:38:25.073Z,17.61
2022-09-04T02:41:58.156Z,17.61
2022-09-04T02:45:32.181Z,17.60
2022-09-04T02:48:47.281Z,17.58
2022-09-04T02:52:15.726Z,17.53
2022-09-04T02:55:30.578Z,17.45
2022-09-04T02:58:53.108Z,17.44
2022-09-04T03:01:59.276Z,17.39
2022-09-04T03:05:22.441Z,17.41
2022-09-04T03:08:43.580Z,17.42
2022-09-04T03:12:29.025Z,17.47
2022-09-04T03:15:43.509Z,17.48
2022-09-04T03:19:12.436Z,17.46
2022-09-04T03:22:28.662Z,17.46
2022-09-04T03:25:43.896Z,17.49
2022-09-04T03:29:25.053Z,17.48
2022-09-04T03:32:34.978Z,17.45
2022-09-04T03:36:01.401Z,17.44
2022-09-04T03:39:11.897Z,17.42
2022-09-04T03:42:30.836Z,17.37
2022-09-04T03:45:42.581Z,17.40
2022-09-04T03:49:13.282Z,17.33
2022-09-04T03:53:00.893Z,17.33
2022-09-04T03:56:25.462Z,17.31
2022-09-04T03:59:46.245Z,17.28
2022-09-04T04:03:04.712Z,17.22
2022-09-04T04:06:19.796Z,17.20
2022-09-04T04:09:40.464Z,17.22
2022-09-04T04:12:49.821Z,17.27
2022-09-04T04:16:24.794Z,17.30
2022-09-04T04:19:42.166Z,17.33
2022-09-04T04:22:46.354Z,17.36
2022-09-04T04:26:05.709Z,17.34
2022-09-04T04:29:40.777Z,17.33
2022-09-04T04:33:09.702Z,17.34
2022-09-04T04:36:31.709Z,17.33
2022-09-04T04:39:59.839Z,17.31
2022-09-04T04:43:22.484Z,17.28
2022-09-04T04:46:44.797Z,17.19
2022-09-04T04:50:08.030Z,17.21
2022-09-04T04:53:29.135Z,17.19
2022-09-04T04:57:05.034Z,17.13
2022-09-04T05:00:22.836Z,17.02
2022-09-04T05:04:06.725Z,17.03
2022-09-04T05:07:22.438Z,17.01
2022-09-04T05:10:33.367Z,16.96
2022-09-04T05:13:53.506Z,16.98
2022-09-04T05:17:13.563Z,17.00
2022-09-04T05:20:17.851Z,17.02
2022-09-04T05:23:28.719Z,17.08
2022-09-04T05:26:43.891Z,17.13
2022-09-04T05:29:56.836Z,17.13
2022-09-04T05:33:10.458Z,17.15
2022-09-04T05:36:37.392Z,17.19
2022-09-04T05:39:39.079Z,17.27
2022-09-04T05:42:53.688Z,17.31
2022-09-04T05:46:23.163Z,17.32
2022-09-04T05:49:32.988Z,17.32
2022-09-04T05:53:04.542Z,17.42
2022-09-04T05:56:43.190Z,17.51
2022-09-04T06:00:02.618Z,17.59
2022-09-04T06:03:30.229Z,17.68
2022-09-04T06:07:09.244Z,17.78
2022-09-04T06:10:28.268Z,17.83
2022-09-04T06:13:46.524Z,17.82
2022-09-04T06:17:06.345Z,17.90
2022-09-04T06:20:34.485Z,17.99
2022-09-04T06:24:15.813Z,18.02
2022-09-04T06:27:57.074Z,18.03
2022-09-04T06:31:27.601Z,18.12
2022-09-04T06:34:51.914Z,18.23
2022-09-04T06:38:09.415Z,18.32
2022-09-04T06:41:52.950Z,18.39
2022-09-04T06:45:12.124Z,18.45
2022-09-04T06:48:42.187Z,18.48
2022-09-04T06:51:59.685Z,18.58
2022-09-04T06:55:30.797Z,18.65
2022-09-04T06:58:56.044Z,18.77
2022-09-04T07:02:28.702Z,18.96
2022-09-04T07:05:42.909Z,19.03
2022-09-04T07:09:16.956Z,19.21
2022-09-04T07:12:48.029Z,19.34
2022-09-04T07:16:15.776Z,19.49
2022-09-04T07:19:42.226Z,19.55
2022-09-04T07:22:56.124Z,19.66
2022-09-04T07:26:04.748Z,19.85
2022-09-04T07:29:30.570Z,20.01
2022-09-04T07:32:44.512Z,20.07
2022-09-04T07:35:55.828Z,20.25
2022-09-04T07:39:13.993Z,20.26
2022-09-04T07:42:30.971Z,20.34
2022-09-04T07:45:47.295Z,20.54
2022-09-04T07:49:02.821Z,20.54
2022-09-04T07:52:13.815Z,20.70
2022-09-04T07:55:51.998Z,20.84
2022-09-04T07:59:09.093Z,21.08
2022-09-04T08:02:31.963Z,21.15
2022-09-04T08:05:41.103Z,21.21
2022-09-04T08:09:19.365Z,21.49
2022-09-04T08:12:48.729Z,21.44
2022-09-04T08:16:07.054Z,21.51
2022-09-04T08:19:21.153Z,21.65
2022-09-04T08:22:37.701Z,21.94
2022-09-04T08:25:59.794Z,22.05
2022-09-04T08:29:24.358Z,21.85
2022-09-04T08:32:41.830Z,21.66
2022-09-04T08:36:42.052Z,21.62
2022-09-04T08:39:46.190Z,21.88
2022-09-04T08:43:03.940Z,22.15
2022-09-04T08:46:28.337Z,22.18
2022-09-04T08:50:08.345Z,22.34
2022-09-04T08:53:25.757Z,22.56
2022-09-04T08:56:37.540Z,22.67
2022-09-04T09:00:01.832Z,22.81
2022-09-04T09:03:42.384Z,22.94
2022-09-04T09:07:06.530Z,22.53
2022-09-04T09:10:37.474Z,22.60
2022-09-04T09:14:13.561Z,22.34
2022-09-04T09:17:39.628Z,22.78
2022-09-04T09:20:56.272Z,22.70
2022-09-04T09:24:21.718Z,22.71
2022-09-04T09:27:41.145Z,22.97
2022-09-04T09:31:05.267Z,23.13
2022-09-04T09:34:11.298Z,23.48
2022-09-04T09:37:50.438Z,23.57
2022-09-04T09:41:11.727Z,23.69
2022-09-04T09:44:25.793Z,23.96
2022-09-04T09:48:09.768Z,24.06
2022-09-04T09:51:40.300Z,24.07
2022-09-04T09:55:18.885Z,23.60
2022-09-04T09:58:51.284Z,23.59
2022-09-04T10:02:14.235Z,23.70
2022-09-04T10:05:40.356Z,23.59
2022-09-04T10:09:09.768Z,24.16
2022-09-04T10:12:50.138Z,24.67
2022-09-04T10:16:03.772Z,24.71
2022-09-04T10:19:43.119Z,24.67
2022-09-04T10:23:06.353Z,24.85
2022-09-04T10:26:57.394Z,25.12
2022-09-04T10:30:16.507Z,24.97
2022-09-04T10:33:32.632Z,24.98
2022-09-04T10:37:06.867Z,25.15
2022-09-04T10:40:45.298Z,25.12
2022-09-04T10:44:28.345Z,25.26
2022-09-04T10:47:44.866Z,25.02
2022-09-04T10:51:11.818Z,25.14
2022-09-04T10:54:48.036Z,24.91
2022-09-04T10:58:10.802Z,24.60
2022-09-04T11:01:41.047Z,24.43
2022-09-04T11:05:15.568Z,24.09
2022-09-04T11:09:02.007Z,24.15
2022-09-04T11:12:28.820Z,24.41
2022-09-04T11:16:00.064Z,24.90
2022-09-04T11:19:28.721Z,25.26
2022-09-04T11:22:40.838Z,25.34
2022-09-04T11:26:10.049Z,25.46
2022-09-04T11:29:41.127Z,25.81
2022-09-04T11:33:00.862Z,25.95
2022-09-04T11:36:05.740Z,25.65
2022-09-04T11:39:38.193Z,25.46
2022-09-04T11:43:01.270Z,25.63
2022-09-04T11:46:21.569Z,25.76
2022-09-04T11:49:53.165Z,26.02
2022-09-04T11:53:08.029Z,25.73
2022-09-04T11:56:50.673Z,25.99
2022-09-04T12:00:12.335Z,26.29
2022-09-04T12:03:22.880Z,26.43
2022-09-04T12:06:43.725Z,26.33
2022-09-04T12:10:01.666Z,26.31
2022-09-04T12:13:15.779Z,26.59
2022-09-04T12:16:20.294Z,26.52
2022-09-04T12:19:43.300Z,26.77
2022-09-04T12:23:12.800Z,26.88
2022-09-04T12:26:55.139Z,27.05
2022-09-04T12:30:20.365Z,27.18
2022-09-04T12:34:05.985Z,27.23
2022-09-04T12:37:27.375Z,27.30
2022-09-04T12:40:31.768Z,27.22
2022-09-04T12:43:56.414Z,27.22
2022-09-04T12:47:33.072Z,27.31
2022-09-04T12:50:44.229Z,27.48
2022-09-04T12:54:08.954Z,27.59
2022-09-04T12:57:47.447Z,27.53
2022-09-04T13:01:15.234Z,27.53
2022-09-04T13:04:27.868Z,27.66
2022-09-04T13:07:34.084Z,27.44
2022-09-04T13:10:44.375Z,27.56
2022-09-04T13:14:09.114Z,27.70
2022-09-04T13:17:25.772Z,27.74
2022-09-04T13:20:50.267Z,27.64
2022-09-04T13:24:12.840Z,27.48
2022-09-04T13:27:49.088Z,27.82
2022-09-04T13:31:03.370Z,27.92
2022-09-04T13:34:07.872Z,27.93
2022-09-04T13:37:16.762Z,27.80
2022-09-04T13:40:54.830Z,28.04
2022-09-04T13:44:20.709Z,28.15
2022-09-04T13:47:32.140Z,28.33
2022-09-04T13:50:52.238Z,28.03
2022-09-04T13:54:06.628Z,28.15
2022-09-04T13:57:30.370Z,28.44
2022-09-04T14:00:35.034Z,28.64
2022-09-04T14:03:39.027Z,28.67
2022-09-04T14:06:40.601Z,28.63
2022-09-04T14:09:46.722Z,28.39
2022-09-04T14:13:00.302Z,28.44
2022-09-04T14:16:06.331Z,28.59
2022-09-04T14:19:32.013Z,28.41
2022-09-04T14:22:49.344Z,28.69
2022-09-04T14:26:16.993Z,28.16
2022-09-04T14:30:00.054Z,27.97
2022-09-04T14:33:40.323Z,28.26
2022-09-04T14:37:13.384Z,28.41
2022-09-04T14:40:20.197Z,28.23
2022-09-04T14:43:34.948Z,28.53
2022-09-04T14:46:39.023Z,28.87
2022-09-04T14:49:50.401Z,28.88
2022-09-04T14:53:03.675Z,29.05
2022-09-04T14:56:31.273Z,28.95
2022-09-04T14:59:43.458Z,28.84
2022-09-04T15:03:27.891Z,28.11
2022-09-04T15:06:49.246Z,28.25
2022-09-04T15:10:10.396Z,28.61
2022-09-04T15:13:35.221Z,29.13
2022-09-04T15:16:39.961Z,28.65
2022-09-04T15:19:51.784Z,29.11
2022-09-04T15:23:16.914Z,29.30
2022-09-04T15:26:39.490Z,29.11
2022-09-04T15:30:08.669Z,29.43
2022-09-04T15:33:19.903Z,29.10
2022-09-04T15:36:24.316Z,29.14
2022-09-04T15:39:53.850Z,29.20
2022-09-04T15:43:08.594Z,29.69
2022-09-04T15:46:20.986Z,29.65
2022-09-04T15:49:49.453Z,29.67
2022-09-04T15:53:00.530Z,29.87
2022-09-04T15:56:34.895Z,29.95
2022-09-04T15:59:47.748Z,30.12
2022-09-04T16:03:23.227Z,29.96
2022-09-04T16:06:32.830Z,30.01
2022-09-04T16:09:43.961Z,30.04
2022-09-04T16:12:56.450Z,29.66
2022-09-04T16:16:10.362Z,29.69
2022-09-04T16:19:38.225Z,29.57
2022-09-04T16:22:48.277Z,29.42
2022-09-04T16:25:50.766Z,29.21
2022-09-04T16:29:01.743Z,29.11
2022-09-04T16:32:07.966Z,28.97
2022-09-04T16:35:21.368Z,28.81
2022-09-04T16:38:32.155Z,28.65
2022-09-04T16:41:54.086Z,28.42
2022-09-04T16:45:09.977Z,28.25
2022-09-04T16:48:34.699Z,28.16
2022-09-04T16:51:58.272Z,27.95
2022-09-04T16:55:10.476Z,27.78
2022-09-04T16:58:20.512Z,27.70
2022-09-04T17:01:59.561Z,27.57
2022-09-04T17:05:28.737Z,27.47
2022-09-04T17:08:44.415Z,27.49
2022-09-04T17:11:55.773Z,27.39
2022-09-04T17:15:16.292Z,27.38
2022-09-04T17:18:23.037Z,27.24
2022-09-04T17:29:03.411Z,27.11
2022-09-04T17:29:04.171Z,26.95
2022-09-04T17:29:36.336Z,26.85
2022-09-04T17:39:50.822Z,26.71
2022-09-04T17:40:36.454Z,26.66
2022-09-04T17:41:35.709Z,26.52
2022-09-04T17:44:03.488Z,26.39
2022-09-04T17:47:11.449Z,26.31
2022-09-04T17:50:17.298Z,26.21
2022-09-04T17:53:38.184Z,26.12
2022-09-04T17:56:58.368Z,26.01
2022-09-04T18:00:06.493Z,25.86
2022-09-04T18:03:30.013Z,25.76
2022-09-04T18:06:39.053Z,25.69
2022-09-04T18:09:59.356Z,25.58
2022-09-04T18:13:37.036Z,25.42
2022-09-04T18:17:12.563Z,25.27
2022-09-04T18:20:37.396Z,25.03
2022-09-04T18:23:54.676Z,24.95
2022-09-04T18:27:08.215Z,24.90
2022-09-04T18:34:48.812Z,24.80
2022-09-04T18:37:16.261Z,24.69
2022-09-04T18:37:44.068Z,24.50
2022-09-04T18:43:45.028Z,24.41
2022-09-04T18:50:28.539Z,24.34
2022-09-04T18:50:36.246Z,24.25
2022-09-04T18:51:30.964Z,24.07
2022-09-04T18:54:41.832Z,24.04
2022-09-04T18:57:53.246Z,23.93
2022-09-04T19:01:08.746Z,23.80
2022-09-04T19:04:32.368Z,23.66
2022-09-04T19:07:48.892Z,23.52
2022-09-04T19:10:54.850Z,23.42
2022-09-04T19:14:15.295Z,23.43
2022-09-04T19:17:26.324Z,23.36
2022-09-04T19:20:38.422Z,23.30
2022-09-04T19:23:49.147Z,23.22
2022-09-04T19:26:54.478Z,23.12
2022-09-04T19:30:18.585Z,23.01
2022-09-04T19:33:32.272Z,22.94
2022-09-04T19:36:40.661Z,22.94
2022-09-04T19:45:54.699Z,22.94
2022-09-04T19:46:26.226Z,22.98
2022-09-04T19:46:44.239Z,23.01
2022-09-04T19:53:17.753Z,23.00
2022-09-04T19:53:38.615Z,23.01
2022-09-04T19:57:31.596Z,22.96
2022-09-04T20:00:42.716Z,22.94
2022-09-04T20:03:50.192Z,22.86
2022-09-04T20:06:59.166Z,22.85
2022-09-04T20:10:05.725Z,22.78
2022-09-04T20:13:38.636Z,22.72
2022-09-04T20:17:10.884Z,22.62
2022-09-04T20:20:25.953Z,22.51
2022-09-04T20:23:57.846Z,22.30
2022-09-04T20:27:09.609Z,22.29
2022-09-04T20:30:19.258Z,22.21
2022-09-04T20:33:25.281Z,22.19
2022-09-04T20:36:34.097Z,22.23
2022-09-04T20:39:43.785Z,22.21
2022-09-04T20:43:03.500Z,22.22
2022-09-04T20:52:41.233Z,22.19
2022-09-04T20:52:59.687Z,22.19
2022-09-04T20:53:30.125Z,22.11
2022-09-04T20:58:59.389Z,22.09
2022-09-04T21:03:10.861Z,22.05
2022-09-04T21:03:43.955Z,21.99
2022-09-04T21:07:10.316Z,21.96
2022-09-04T21:10:28.272Z,21.90
2022-09-04T21:13:50.812Z,21.72
2022-09-04T21:17:33.762Z,21.68
2022-09-04T21:21:00.874Z,21.67
2022-09-04T21:24:19.593Z,21.64
2022-09-04T21:27:42.918Z,21.63
2022-09-04T21:30:58.183Z,21.56
2022-09-04T21:34:31.058Z,21.45
2022-09-04T21:37:56.300Z,21.36
2022-09-04T21:41:00.809Z,21.37
2022-09-04T21:44:21.018Z,21.36
2022-09-04T21:47:44.857Z,21.39
2022-09-04T21:50:59.366Z,21.39
2022-09-04T21:56:21.438Z,21.31
2022-09-04T22:02:38.830Z,21.22
2022-09-04T22:02:40.618Z,21.28
2022-09-04T22:05:19.295Z,21.23
2022-09-04T22:13:30.678Z,21.17
2022-09-04T22:13:43.611Z,21.13
2022-09-04T22:15:37.521Z,21.03
2022-09-04T22:18:50.077Z,20.96
2022-09-04T22:22:05.470Z,20.96
2022-09-04T22:25:30.945Z,20.97
2022-09-04T22:28:55.629Z,20.97
2022-09-04T22:32:24.338Z,20.95
2022-09-04T22:35:36.121Z,20.89
2022-09-04T22:38:50.168Z,20.85
2022-09-04T22:42:20.582Z,20.83
2022-09-04T22:45:47.132Z,20.85
2022-09-04T22:49:26.177Z,20.81
2022-09-04T22:52:42.837Z,20.75
2022-09-04T22:56:22.798Z,20.70
2022-09-04T22:59:37.070Z,20.66
2022-09-04T23:09:03.098Z,20.49
2022-09-04T23:13:49.987Z,20.38
2022-09-04T23:14:19.180Z,20.40
2022-09-04T23:18:35.010Z,20.38
2022-09-04T23:26:36.605Z,20.39
2022-09-04T23:26:42.223Z,20.27
2022-09-04T23:28:55.013Z,20.23
2022-09-04T23:32:24.943Z,20.26
2022-09-04T23:35:48.322Z,20.07
2022-09-04T23:39:10.826Z,20.09
2022-09-04T23:42:39.107Z,19.94
2022-09-04T23:46:11.610Z,19.83
2022-09-04T23:49:51.650Z,19.49
2022-09-04T23:53:17.900Z,19.23
2022-09-04T23:56:47.843Z,19.12
